DGPNW EDXW-EDDH
Flight info
| Callsign | DGPNW |
|---|---|
| Flight time | N/A |
| Altitude | 5000 |
| Route | OLDIP1B OLDIP DCT BADOS DCT OMWEG DCT RIBSO RIBSO7A |
| Aircraft | BE58/L-SDFGRY/C |
Departure
| Time | 2026-05-06 20:10 |
|---|---|
| Airport | Westerland Sylt Airport (EDXW) |
Arrival
| Time | N/A |
|---|---|
| Airport | Hamburg Helmut Schmidt Airport (EDDH) |
| Time | Latitude | Longitude | Altitude | Speed | Heading |
|---|---|---|---|---|---|
| 2026-05-06 19:42 | 54.92081 | 8.33965 | 45 ft | 0 kts | 80° |
| 2026-05-06 19:57 | 54.92081 | 8.33967 | 45 ft | 0 kts | 80° |
| 2026-05-06 19:57 | 54.92075 | 8.33997 | 45 ft | 7 kts | 137° |
| 2026-05-06 19:57 | 54.92060 | 8.34001 | 44 ft | 6 kts | 203° |
| 2026-05-06 19:58 | 54.92053 | 8.33910 | 43 ft | 9 kts | 282° |
| 2026-05-06 19:58 | 54.92028 | 8.33806 | 41 ft | 11 kts | 232° |
| 2026-05-06 19:58 | 54.91994 | 8.33729 | 38 ft | 0 kts | 237° |
| 2026-05-06 19:59 | 54.91970 | 8.33652 | 35 ft | 16 kts | 249° |
| 2026-05-06 20:00 | 54.91899 | 8.33546 | 35 ft | 12 kts | 174° |
| 2026-05-06 20:00 | 54.91841 | 8.33616 | 39 ft | 12 kts | 121° |
| 2026-05-06 20:00 | 54.91779 | 8.33772 | 36 ft | 21 kts | 127° |
| 2026-05-06 20:00 | 54.91699 | 8.33968 | 34 ft | 19 kts | 119° |
| 2026-05-06 20:01 | 54.91664 | 8.34180 | 33 ft | 16 kts | 96° |
| 2026-05-06 20:01 | 54.91677 | 8.34341 | 37 ft | 11 kts | 78° |
| 2026-05-06 20:01 | 54.91703 | 8.34503 | 39 ft | 17 kts | 73° |
| 2026-05-06 20:01 | 54.91726 | 8.34659 | 44 ft | 10 kts | 73° |
| 2026-05-06 20:02 | 54.91738 | 8.34738 | 46 ft | 5 kts | 69° |
| 2026-05-06 20:02 | 54.91759 | 8.34861 | 50 ft | 9 kts | 86° |
| 2026-05-06 20:02 | 54.91751 | 8.34931 | 52 ft | 5 kts | 147° |
| 2026-05-06 20:02 | 54.91708 | 8.34938 | 53 ft | 0 kts | 173° |
| 2026-05-06 20:07 | 54.91688 | 8.34942 | 53 ft | 10 kts | 172° |
| 2026-05-06 20:08 | 54.91619 | 8.34938 | 51 ft | 9 kts | 230° |
| 2026-05-06 20:08 | 54.91615 | 8.34930 | 51 ft | 0 kts | 240° |
| 2026-05-06 20:09 | 54.91570 | 8.34787 | 44 ft | 48 kts | 240° |
| 2026-05-06 20:10 | 54.91272 | 8.33911 | 33 ft | 114 kts | 241° |
| 2026-05-06 20:10 | 54.90785 | 8.32668 | 170 ft | 133 kts | 231° |
| 2026-05-06 20:10 | 54.90264 | 8.31344 | 372 ft | 138 kts | 250° |
| 2026-05-06 20:10 | 54.89818 | 8.29931 | 737 ft | 137 kts | 239° |
| 2026-05-06 20:11 | 54.89246 | 8.28560 | 980 ft | 145 kts | 234° |
| 2026-05-06 20:11 | 54.88585 | 8.27406 | 1550 ft | 127 kts | 216° |
| 2026-05-06 20:11 | 54.87825 | 8.26521 | 1823 ft | 137 kts | 197° |
| 2026-05-06 20:11 | 54.86907 | 8.26071 | 2018 ft | 147 kts | 187° |
| 2026-05-06 20:12 | 54.85837 | 8.25723 | 2104 ft | 158 kts | 182° |
| 2026-05-06 20:12 | 54.84745 | 8.25551 | 2310 ft | 159 kts | 178° |
| 2026-05-06 20:12 | 54.83591 | 8.25517 | 2268 ft | 169 kts | 174° |
| 2026-05-06 20:12 | 54.82807 | 8.25589 | 2255 ft | 171 kts | 165° |
| 2026-05-06 20:13 | 54.81639 | 8.25965 | 2247 ft | 176 kts | 181° |
| 2026-05-06 20:13 | 54.80419 | 8.25777 | 2254 ft | 175 kts | 171° |
| 2026-05-06 20:13 | 54.79214 | 8.25999 | 2251 ft | 175 kts | 168° |
| 2026-05-06 20:13 | 54.78004 | 8.26283 | 2265 ft | 175 kts | 167° |
| 2026-05-06 20:14 | 54.76837 | 8.26492 | 2516 ft | 163 kts | 169° |
| 2026-05-06 20:14 | 54.75731 | 8.26689 | 2757 ft | 155 kts | 165° |
| 2026-05-06 20:14 | 54.74765 | 8.27357 | 3002 ft | 147 kts | 146° |
| 2026-05-06 20:14 | 54.73864 | 8.28163 | 3249 ft | 144 kts | 149° |
| 2026-05-06 20:15 | 54.73030 | 8.28919 | 3720 ft | 128 kts | 148° |
| 2026-05-06 20:15 | 54.72266 | 8.29588 | 4198 ft | 117 kts | 147° |
| 2026-05-06 20:15 | 54.71392 | 8.30458 | 4809 ft | 103 kts | 140° |
| 2026-05-06 20:15 | 54.70971 | 8.30893 | 4972 ft | 111 kts | 143° |
| 2026-05-06 20:16 | 54.70285 | 8.31746 | 4999 ft | 134 kts | 137° |
| 2026-05-06 20:16 | 54.69493 | 8.32770 | 5004 ft | 149 kts | 136° |
| 2026-05-06 20:16 | 54.68701 | 8.34028 | 5001 ft | 159 kts | 130° |
| 2026-05-06 20:16 | 54.67865 | 8.35347 | 4996 ft | 165 kts | 132° |
| 2026-05-06 20:17 | 54.67006 | 8.36700 | 4993 ft | 168 kts | 133° |
| 2026-05-06 20:17 | 54.66130 | 8.38063 | 4980 ft | 170 kts | 133° |
| 2026-05-06 20:17 | 54.65267 | 8.39456 | 4962 ft | 171 kts | 130° |
| 2026-05-06 20:17 | 54.64501 | 8.41041 | 4894 ft | 172 kts | 121° |
| 2026-05-06 20:18 | 54.63776 | 8.42672 | 4898 ft | 171 kts | 125° |
| 2026-05-06 20:18 | 54.63049 | 8.44311 | 4837 ft | 173 kts | 124° |